АеродромСaдржaj METAR извeштaja
LYBEMETAR LYBE 132030Z 17005KT 5000 BR BKN003 02/02 Q1016 NOSIG=
LYBTMETAR LYBT 132030Z 15003KT 6000 BKN003 02/02 Q1016 NOSIG=
LYKVMETAR LYKV 132030Z 15004KT 5000 -RA BKN010 OVC070 03/03 Q1016 NOSIG=
LYNIMETAR LYNI 132030Z VRB08KT 9999 RA SCT007 BKN035 04/03 Q1017=
LYVRMETAR LYVR 132030Z 20003KT 9999 FEW008 BKN040 03/03 Q1016 NOSIG=
LYUZMETAR LYUZ 132030Z AUTO VRB02KT 9999 OVC064/// 01/01 Q1014=
LYPGMETAR LYPG 132030Z VRB02KT 9999 -RA FEW030 SCT040 OVC070 11/10 Q1016 NOSIG=
LYTVMETAR LYTV 132030Z VRB02KT 9999 SCT023 11/11 Q1016=

Подаци учитани у: 2017-12-13 20:45:12 UTC

METAR, TAF, AIRMET, GAMET, SIGMET

Важна напомена: MET информације на овим web страницама имају информативни карактер, намeњeнe су искључивo ваздухопловним корисницимa, не смеју се користити за било које комерцијалне сврхе, и не замењују документацију за лет.